Time;durP1;ratioP1;P1;durP2;ratioP2;P2;SDS_P1;SDS_P2;PMS_P1;PMS_P2;Temp;Humidity;BMP_temperature;BMP_pressure;BME280_temperature;BME280_humidity;BME280_pressure;Samples;Min_cycle;Max_cycle;Signal;HPM_P1;HPM_P2
2022/07/28 00:01:33;;;;;;;2.17;1.40;;;11.80;99.90;;;;;;5094547;27;20340;-43
2022/07/28 00:04:00;;;;;;;6.23;1.70;;;11.70;99.90;;;;;;5108397;27;20201;-43
2022/07/28 00:06:27;;;;;;;1.33;1.20;;;11.70;99.90;;;;;;5100803;27;20236;-42
2022/07/28 00:08:55;;;;;;;4.50;2.10;;;11.70;99.90;;;;;;5103708;28;20688;-43
2022/07/28 00:11:23;;;;;;;2.17;1.33;;;11.60;99.90;;;;;;5101079;28;20208;-45
2022/07/28 00:13:49;;;;;;;1.77;1.50;;;11.60;99.90;;;;;;5104111;28;20212;-42
2022/07/28 00:16:16;;;;;;;1.30;1.20;;;11.50;99.90;;;;;;5100484;27;20678;-43
2022/07/28 00:18:44;;;;;;;2.67;1.47;;;11.50;99.90;;;;;;5110760;27;20263;-45
2022/07/28 00:21:11;;;;;;;3.87;1.40;;;11.50;99.90;;;;;;5103227;28;20616;-43
2022/07/28 00:23:38;;;;;;;3.43;1.30;;;11.50;99.90;;;;;;5100840;28;20196;-43
2022/07/28 00:26:07;;;;;;;3.40;1.50;;;11.50;99.90;;;;;;5113932;27;20196;-46
2022/07/28 00:28:34;;;;;;;3.57;1.43;;;11.50;99.90;;;;;;5117109;27;20864;-42
2022/07/28 00:31:01;;;;;;;3.17;1.40;;;11.40;99.90;;;;;;5124075;27;20246;-41
2022/07/28 00:33:28;;;;;;;2.60;1.30;;;11.50;99.90;;;;;;5099909;27;20215;-42
2022/07/28 00:35:55;;;;;;;1.77;1.40;;;11.40;99.90;;;;;;5109068;27;20673;-44
2022/07/28 00:38:22;;;;;;;3.97;1.47;;;11.30;99.90;;;;;;5110677;27;20232;-44
2022/07/28 00:43:34;;;;;;;2.83;1.57;;;11.10;99.90;;;;;;5100582;28;20189;-42
2022/07/28 00:46:01;;;;;;;1.90;1.20;;;11.20;99.90;;;;;;5113689;27;20204;-41
2022/07/28 00:48:28;;;;;;;3.00;1.60;;;11.20;99.90;;;;;;5099516;27;20213;-42
2022/07/28 00:50:55;;;;;;;1.60;1.33;;;11.10;99.90;;;;;;5105866;28;20297;-44
2022/07/28 00:53:23;;;;;;;1.90;1.30;;;11.00;99.90;;;;;;5100493;28;20220;-43
2022/07/28 00:55:50;;;;;;;1.47;1.17;;;11.00;99.90;;;;;;5104233;28;20204;-42
2022/07/28 00:58:17;;;;;;;3.03;1.60;;;10.90;99.90;;;;;;5101990;28;20231;-42
2022/07/28 01:00:45;;;;;;;2.77;1.17;;;10.80;99.90;;;;;;5102192;28;20293;-43
2022/07/28 01:03:13;;;;;;;1.60;1.30;;;10.90;99.90;;;;;;5103736;28;20666;-48
2022/07/28 01:05:55;;;;;;;1.77;1.27;;;10.90;99.90;;;;;;5105436;28;20197;-43
2022/07/28 01:08:33;;;;;;;4.17;1.83;;;11.00;99.90;;;;;;5101807;28;20251;-45
2022/07/28 01:11:07;;;;;;;4.93;1.47;;;10.90;99.90;;;;;;5125084;27;20284;-43
2022/07/28 01:13:42;;;;;;;2.80;1.40;;;10.90;99.90;;;;;;5124060;27;20208;-42
2022/07/28 01:16:11;;;;;;;1.70;1.23;;;11.00;99.90;;;;;;5108710;27;20212;-43
2022/07/28 01:18:42;;;;;;;1.70;1.20;;;10.90;99.90;;;;;;5105711;27;20638;-43
2022/07/28 01:21:12;;;;;;;3.07;1.37;;;10.80;99.90;;;;;;5102546;27;20205;-43
2022/07/28 01:24:03;;;;;;;4.03;1.70;;;10.80;99.90;;;;;;5105781;27;20813;-42
2022/07/28 01:26:41;;;;;;;7.80;1.60;;;10.80;99.90;;;;;;5103757;27;20215;-42
2022/07/28 01:29:23;;;;;;;2.80;1.60;;;10.70;99.90;;;;;;5116522;27;20199;-45
2022/07/28 01:31:59;;;;;;;2.13;1.23;;;10.70;99.90;;;;;;5107622;28;20203;-44
2022/07/28 01:34:32;;;;;;;2.73;1.70;;;10.70;99.90;;;;;;5091161;27;20668;-43
2022/07/28 01:37:05;;;;;;;2.07;1.13;;;10.60;99.90;;;;;;5112018;27;20257;-43
2022/07/28 01:39:35;;;;;;;7.37;1.90;;;10.60;99.90;;;;;;5110259;27;20996;-41
2022/07/28 01:42:04;;;;;;;2.20;1.30;;;10.60;99.90;;;;;;5110743;27;20258;-42
2022/07/28 01:44:34;;;;;;;4.13;1.47;;;10.60;99.90;;;;;;5110955;27;20899;-42
2022/07/28 01:47:06;;;;;;;2.20;1.13;;;10.70;99.90;;;;;;5114707;27;20221;-42
2022/07/28 01:49:34;;;;;;;2.83;1.47;;;10.80;99.90;;;;;;5092616;27;20207;-42
2022/07/28 01:52:02;;;;;;;1.50;1.30;;;10.80;99.90;;;;;;5116502;27;20522;-44
2022/07/28 01:54:32;;;;;;;2.23;1.70;;;10.80;99.90;;;;;;5103482;27;20189;-47
2022/07/28 01:57:01;;;;;;;1.80;1.40;;;10.70;99.90;;;;;;5107059;27;20217;-42
2022/07/28 01:59:30;;;;;;;2.17;1.27;;;10.70;99.90;;;;;;5103149;27;20193;-43
2022/07/28 02:02:00;;;;;;;3.47;1.17;;;10.80;99.90;;;;;;5107329;28;20205;-42
2022/07/28 02:04:30;;;;;;;4.30;1.87;;;10.80;99.90;;;;;;5107684;27;20914;-43
2022/07/28 02:06:59;;;;;;;2.70;1.33;;;10.80;99.90;;;;;;5118573;27;20560;-43
2022/07/28 02:09:27;;;;;;;2.93;1.53;;;10.80;99.90;;;;;;5109020;27;20189;-43
2022/07/28 02:11:56;;;;;;;3.43;1.63;;;10.80;99.90;;;;;;5114950;27;20208;-43
2022/07/28 02:14:23;;;;;;;2.80;1.50;;;10.80;99.90;;;;;;5108678;27;20305;-44
2022/07/28 02:16:54;;;;;;;6.67;1.67;;;10.90;99.90;;;;;;5114216;27;20221;-43
2022/07/28 02:19:23;;;;;;;3.17;1.40;;;10.90;99.90;;;;;;5103305;28;20204;-43
2022/07/28 02:21:54;;;;;;;1.83;1.40;;;11.00;99.90;;;;;;5099476;27;20227;-44
2022/07/28 02:24:43;;;;;;;1.63;1.37;;;11.00;99.90;;;;;;5110981;27;20354;-43
2022/07/28 02:27:16;;;;;;;1.30;1.20;;;11.10;99.90;;;;;;5105232;27;20587;-44
2022/07/28 02:29:47;;;;;;;2.33;1.47;;;11.10;99.90;;;;;;5105508;27;20196;-42
2022/07/28 02:32:19;;;;;;;3.40;1.57;;;11.20;99.90;;;;;;5104693;28;20198;-42
2022/07/28 02:34:49;;;;;;;3.30;1.47;;;11.20;99.90;;;;;;5105464;27;20418;-46
2022/07/28 02:37:18;;;;;;;4.93;1.40;;;11.20;99.90;;;;;;5099196;27;20221;-43
2022/07/28 02:39:50;;;;;;;2.43;1.40;;;11.20;99.90;;;;;;5112965;27;20723;-43
2022/07/28 02:42:19;;;;;;;3.93;1.73;;;11.20;99.90;;;;;;5103490;28;20213;-43
2022/07/28 02:44:55;;;;;;;3.83;1.67;;;11.20;99.90;;;;;;5108618;27;20198;-45
2022/07/28 02:47:26;;;;;;;1.40;1.30;;;11.30;99.90;;;;;;5113489;27;20219;-45
2022/07/28 02:49:56;;;;;;;1.80;1.63;;;11.30;99.90;;;;;;5109653;27;20201;-43
2022/07/28 02:52:25;;;;;;;1.40;1.03;;;11.30;99.90;;;;;;5096270;27;20201;-42
2022/07/28 02:54:54;;;;;;;4.03;1.97;;;11.30;99.90;;;;;;5109365;27;20202;-43
2022/07/28 02:57:22;;;;;;;2.33;1.53;;;11.30;99.90;;;;;;5102544;27;20213;-44
2022/07/28 02:59:50;;;;;;;1.77;1.50;;;11.30;99.90;;;;;;5106193;28;20198;-42
2022/07/28 03:02:20;;;;;;;3.60;1.20;;;11.30;99.90;;;;;;5103477;27;20229;-42
2022/07/28 03:04:57;;;;;;;2.47;1.77;;;11.30;99.90;;;;;;5105185;27;20734;-43
2022/07/28 03:07:27;;;;;;;2.57;1.37;;;11.30;99.90;;;;;;5090091;27;20252;-45
2022/07/28 03:09:54;;;;;;;2.13;1.30;;;11.30;99.90;;;;;;5115043;27;20197;-46
2022/07/28 03:12:21;;;;;;;1.97;1.30;;;11.40;99.90;;;;;;5105007;27;20197;-46
2022/07/28 03:14:48;;;;;;;5.13;1.57;;;11.40;99.90;;;;;;5111971;27;20208;-44
2022/07/28 03:17:15;;;;;;;2.20;1.50;;;11.30;99.90;;;;;;5112574;27;20217;-43
2022/07/28 03:19:42;;;;;;;1.60;1.43;;;11.30;99.90;;;;;;5104254;27;20477;-42
2022/07/28 03:22:09;;;;;;;1.87;1.50;;;11.30;99.90;;;;;;5096990;27;20661;-44
2022/07/28 03:24:39;;;;;;;2.90;1.37;;;11.30;99.90;;;;;;5106297;27;20197;-42
2022/07/28 03:27:15;;;;;;;4.77;1.53;;;11.30;99.90;;;;;;5099369;27;20696;-44
2022/07/28 03:29:43;;;;;;;2.57;1.60;;;11.30;99.90;;;;;;5110150;27;20665;-43
2022/07/28 03:32:10;;;;;;;1.57;1.47;;;11.20;99.90;;;;;;5097269;27;20274;-46
2022/07/28 03:34:37;;;;;;;1.67;1.47;;;11.20;99.90;;;;;;5102766;28;20749;-43
2022/07/28 03:37:09;;;;;;;3.00;1.80;;;11.20;99.90;;;;;;5105601;27;20212;-43
2022/07/28 03:39:44;;;;;;;2.10;1.53;;;11.20;99.90;;;;;;5098845;27;20208;-49
2022/07/28 03:42:12;;;;;;;2.83;1.40;;;11.20;99.90;;;;;;5106329;27;20201;-43
2022/07/28 03:44:40;;;;;;;2.43;1.73;;;11.20;99.90;;;;;;5120185;27;20189;-44
2022/07/28 03:47:07;;;;;;;3.00;1.47;;;11.30;99.90;;;;;;5103018;27;20612;-48
2022/07/28 03:49:34;;;;;;;2.47;1.40;;;11.30;99.90;;;;;;5113655;27;20192;-43
2022/07/28 03:52:01;;;;;;;2.23;1.37;;;11.30;99.90;;;;;;5119240;27;20192;-44
2022/07/28 03:54:28;;;;;;;2.70;1.27;;;11.30;99.90;;;;;;5105710;27;20221;-42
2022/07/28 03:56:56;;;;;;;2.70;1.43;;;11.40;99.90;;;;;;5113884;27;20217;-42
2022/07/28 03:59:23;;;;;;;4.67;1.50;;;11.40;99.90;;;;;;5106131;27;20204;-42
2022/07/28 04:01:50;;;;;;;1.83;1.53;;;11.40;99.90;;;;;;5110369;27;20204;-44
2022/07/28 04:04:17;;;;;;;4.27;1.70;;;11.50;99.90;;;;;;5104118;27;20998;-45
2022/07/28 04:06:44;;;;;;;3.43;1.30;;;11.50;99.90;;;;;;5104564;27;20213;-44
2022/07/28 04:09:11;;;;;;;2.60;1.50;;;11.50;99.90;;;;;;5100721;27;20193;-42
2022/07/28 04:11:38;;;;;;;2.87;1.60;;;11.50;99.90;;;;;;5098657;27;20288;-45
2022/07/28 04:14:06;;;;;;;4.27;1.80;;;11.60;99.90;;;;;;5110954;27;20216;-44
2022/07/28 04:16:33;;;;;;;2.20;2.03;;;11.60;99.90;;;;;;5114662;27;20232;-41
2022/07/28 04:19:00;;;;;;;2.50;1.30;;;11.60;99.90;;;;;;5097419;27;20851;-43
2022/07/28 04:21:27;;;;;;;3.50;1.60;;;11.60;99.90;;;;;;5112749;27;20197;-43
2022/07/28 04:23:54;;;;;;;4.03;1.50;;;11.70;99.90;;;;;;5100809;27;20782;-46
2022/07/28 04:26:20;;;;;;;3.03;1.70;;;11.70;99.90;;;;;;5091949;27;20347;-42
2022/07/28 04:28:47;;;;;;;2.53;1.50;;;11.80;99.90;;;;;;5110366;27;20198;-43
2022/07/28 04:31:16;;;;;;;4.07;1.57;;;11.70;99.90;;;;;;5113274;27;20205;-47
2022/07/28 04:33:42;;;;;;;2.13;1.57;;;11.70;99.90;;;;;;5111522;27;20208;-43
2022/07/28 04:36:10;;;;;;;3.10;1.50;;;11.70;99.90;;;;;;5101666;27;20194;-42
2022/07/28 04:38:37;;;;;;;3.57;1.40;;;11.80;99.90;;;;;;5107943;27;20839;-44
2022/07/28 04:41:04;;;;;;;3.03;1.77;;;11.80;99.90;;;;;;5094129;27;20212;-42
2022/07/28 04:43:31;;;;;;;2.30;1.70;;;11.90;99.90;;;;;;5116816;27;20208;-43
2022/07/28 04:45:58;;;;;;;2.90;1.43;;;12.00;99.90;;;;;;5106362;28;20293;-43
2022/07/28 04:48:26;;;;;;;1.57;1.40;;;12.10;99.90;;;;;;5103574;27;20281;-42
2022/07/28 04:50:53;;;;;;;3.57;1.80;;;12.10;99.90;;;;;;5103615;28;20193;-46
2022/07/28 04:53:20;;;;;;;3.23;1.70;;;12.20;99.90;;;;;;5115505;28;20216;-42
2022/07/28 04:55:48;;;;;;;4.10;1.70;;;12.30;99.90;;;;;;5092303;28;20200;-43
2022/07/28 04:58:17;;;;;;;3.80;1.50;;;12.30;99.90;;;;;;5103993;28;20231;-42
2022/07/28 05:00:43;;;;;;;3.93;1.97;;;12.40;99.90;;;;;;5103162;28;20205;-48
2022/07/28 05:03:11;;;;;;;5.70;1.60;;;12.50;99.90;;;;;;5102339;28;20301;-43
2022/07/28 05:05:39;;;;;;;4.13;1.70;;;12.50;99.90;;;;;;5102368;28;20201;-44
2022/07/28 05:08:06;;;;;;;4.93;2.10;;;12.60;99.90;;;;;;5113237;27;20220;-45
2022/07/28 05:10:33;;;;;;;2.97;1.70;;;12.60;99.90;;;;;;5118961;28;20193;-43
2022/07/28 05:13:05;;;;;;;4.03;1.70;;;12.70;99.90;;;;;;5092732;28;20289;-44
2022/07/28 05:15:32;;;;;;;9.13;2.37;;;12.70;99.90;;;;;;5105262;28;20207;-44
2022/07/28 05:17:58;;;;;;;4.77;1.70;;;12.80;99.90;;;;;;5103347;28;20205;-42
2022/07/28 05:20:26;;;;;;;2.37;1.63;;;12.80;99.90;;;;;;5110166;28;20673;-42
2022/07/28 05:22:56;;;;;;;4.10;2.07;;;13.00;99.90;;;;;;5104618;28;20663;-43
2022/07/28 05:25:24;;;;;;;5.77;1.77;;;13.00;99.90;;;;;;5112766;28;20204;-43
2022/07/28 05:27:52;;;;;;;5.17;1.40;;;13.10;99.90;;;;;;5089622;28;20213;-43
2022/07/28 05:30:19;;;;;;;5.83;1.20;;;13.20;99.90;;;;;;5111272;28;20193;-43
2022/07/28 05:32:47;;;;;;;4.80;1.40;;;13.20;99.90;;;;;;5102617;28;20201;-43
2022/07/28 05:35:15;;;;;;;2.53;1.50;;;13.30;99.90;;;;;;5106564;28;20678;-44
2022/07/28 05:37:42;;;;;;;2.90;1.43;;;13.40;99.90;;;;;;5116004;28;20211;-48
2022/07/28 05:40:13;;;;;;;3.83;1.10;;;13.50;99.90;;;;;;5103130;28;21062;-46
2022/07/28 05:42:41;;;;;;;6.27;1.50;;;13.50;99.90;;;;;;5096562;28;20219;-47
2022/07/28 05:45:09;;;;;;;2.40;1.20;;;13.60;99.90;;;;;;5101918;28;20185;-42
2022/07/28 05:47:45;;;;;;;3.67;1.20;;;13.70;99.90;;;;;;5108686;27;20232;-48
2022/07/28 05:50:13;;;;;;;6.40;1.20;;;13.90;99.90;;;;;;5104570;28;20188;-46
2022/07/28 05:52:40;;;;;;;3.23;1.30;;;13.90;99.90;;;;;;5102228;28;20250;-45
2022/07/28 05:55:08;;;;;;;1.60;1.00;;;14.00;99.90;;;;;;5098358;28;20210;-43
2022/07/28 05:57:37;;;;;;;1.43;0.90;;;14.10;99.90;;;;;;5108771;27;20214;-44
2022/07/28 06:00:07;;;;;;;2.07;1.40;;;14.20;99.90;;;;;;5103388;27;20930;-44
2022/07/28 06:02:38;;;;;;;4.37;2.63;;;14.30;99.90;;;;;;5116334;27;20193;-44
2022/07/28 06:05:06;;;;;;;5.53;1.30;;;14.30;99.90;;;;;;5105892;27;20196;-42
2022/07/28 06:07:34;;;;;;;2.90;1.00;;;14.40;99.90;;;;;;5108623;27;20221;-44
2022/07/28 06:10:00;;;;;;;2.27;1.53;;;14.50;99.90;;;;;;5104024;27;20197;-46
2022/07/28 06:12:27;;;;;;;2.23;1.10;;;14.60;99.90;;;;;;5120450;27;20689;-46
2022/07/28 06:14:55;;;;;;;3.27;0.83;;;14.60;99.90;;;;;;5092174;27;20313;-43
2022/07/28 06:17:22;;;;;;;2.60;1.10;;;14.60;99.90;;;;;;5110539;27;20221;-42
2022/07/28 06:19:49;;;;;;;3.10;1.40;;;14.70;99.90;;;;;;5111242;27;20192;-43
2022/07/28 06:22:16;;;;;;;6.63;1.60;;;14.70;99.90;;;;;;5104302;27;20197;-43
2022/07/28 06:24:43;;;;;;;3.00;1.50;;;14.80;99.90;;;;;;5108259;27;20214;-43
2022/07/28 06:27:09;;;;;;;5.93;1.23;;;14.90;99.90;;;;;;5104703;27;20213;-43
2022/07/28 06:29:37;;;;;;;4.47;2.30;;;15.00;99.90;;;;;;5105166;27;20189;-42
2022/07/28 06:32:06;;;;;;;4.77;0.97;;;15.00;99.90;;;;;;5098063;27;20700;-43
2022/07/28 06:34:33;;;;;;;3.50;0.90;;;15.10;99.90;;;;;;5107592;27;20562;-47
2022/07/28 06:37:00;;;;;;;6.33;1.07;;;15.20;99.90;;;;;;5114647;27;20655;-43
2022/07/28 06:39:27;;;;;;;1.73;0.87;;;15.30;99.90;;;;;;5114784;27;20217;-45
2022/07/28 06:41:54;;;;;;;3.53;1.07;;;15.40;99.90;;;;;;5103607;27;20205;-42
2022/07/28 06:44:20;;;;;;;2.80;0.80;;;15.50;99.90;;;;;;5108674;27;20192;-47
2022/07/28 06:46:47;;;;;;;8.37;0.87;;;15.60;99.90;;;;;;5093980;27;20220;-45
2022/07/28 06:49:15;;;;;;;1.97;0.93;;;15.60;99.90;;;;;;5115041;27;20192;-47
2022/07/28 06:51:42;;;;;;;2.13;1.07;;;15.60;99.90;;;;;;5105801;27;20197;-46
2022/07/28 06:54:09;;;;;;;2.20;0.70;;;15.60;99.90;;;;;;5105320;27;20397;-46
2022/07/28 06:56:36;;;;;;;4.20;0.67;;;15.70;99.90;;;;;;5097810;27;20247;-48
2022/07/28 06:59:02;;;;;;;1.60;0.63;;;15.80;99.90;;;;;;5113855;27;20239;-44
2022/07/28 07:01:29;;;;;;;4.03;0.90;;;15.80;99.90;;;;;;5094702;27;20280;-46
2022/07/28 07:03:56;;;;;;;3.67;1.33;;;15.90;99.90;;;;;;5113271;27;20201;-43
2022/07/28 07:06:25;;;;;;;1.37;0.77;;;15.90;99.90;;;;;;5110342;27;20200;-44
2022/07/28 07:08:52;;;;;;;1.30;0.83;;;15.90;99.90;;;;;;5106365;27;20205;-43
2022/07/28 07:11:19;;;;;;;2.57;0.70;;;16.00;99.90;;;;;;5109957;27;20208;-44
2022/07/28 07:13:46;;;;;;;4.97;1.10;;;16.00;99.90;;;;;;5104381;27;20290;-42
2022/07/28 07:16:13;;;;;;;4.40;0.90;;;16.10;99.90;;;;;;5115255;27;20224;-46
2022/07/28 07:18:39;;;;;;;2.23;0.60;;;16.00;99.90;;;;;;5092922;27;20189;-47
2022/07/28 07:21:07;;;;;;;3.00;1.00;;;16.10;99.90;;;;;;5120674;27;20207;-42
2022/07/28 07:23:36;;;;;;;1.30;0.60;;;16.10;99.90;;;;;;5106031;27;20192;-43
2022/07/28 07:26:03;;;;;;;1.57;0.70;;;16.10;99.90;;;;;;5106429;27;20204;-43
2022/07/28 07:28:29;;;;;;;1.33;0.60;;;16.20;99.90;;;;;;5104485;27;20223;-45
2022/07/28 07:30:56;;;;;;;1.27;1.17;;;16.30;99.90;;;;;;5118493;27;20564;-45
2022/07/28 07:33:23;;;;;;;4.30;0.80;;;16.40;99.90;;;;;;5091883;27;20283;-44
2022/07/28 07:35:50;;;;;;;2.40;0.97;;;16.40;99.90;;;;;;5112260;27;20205;-45
2022/07/28 07:38:17;;;;;;;3.57;0.70;;;16.50;99.90;;;;;;5111470;27;20295;-44
2022/07/28 07:40:45;;;;;;;4.30;1.10;;;16.50;99.90;;;;;;5095790;27;20217;-46
2022/07/28 07:43:11;;;;;;;3.10;1.20;;;16.50;99.90;;;;;;5103990;27;20717;-46
2022/07/28 07:45:40;;;;;;;2.63;0.77;;;16.50;99.90;;;;;;5099078;27;20181;-43
2022/07/28 07:48:07;;;;;;;2.10;0.80;;;16.60;99.90;;;;;;5101029;27;20220;-44
2022/07/28 07:50:34;;;;;;;1.73;0.90;;;16.70;99.90;;;;;;5110479;27;20204;-43
2022/07/28 07:53:01;;;;;;;1.97;0.60;;;16.70;99.90;;;;;;5104025;27;20232;-44
2022/07/28 07:55:28;;;;;;;3.90;0.97;;;16.80;99.90;;;;;;5114179;27;20224;-43
2022/07/28 07:57:57;;;;;;;2.53;0.70;;;16.80;99.90;;;;;;5118291;27;20247;-48
2022/07/28 08:00:24;;;;;;;1.37;1.00;;;16.80;99.90;;;;;;5113008;27;20201;-44
2022/07/28 08:02:51;;;;;;;1.13;0.70;;;16.90;99.90;;;;;;5107166;27;20197;-46
2022/07/28 08:05:18;;;;;;;3.23;0.63;;;16.80;99.90;;;;;;5096694;27;20208;-42
2022/07/28 08:07:45;;;;;;;3.60;0.73;;;16.90;99.90;;;;;;5108114;27;20236;-42
2022/07/28 08:10:11;;;;;;;6.10;0.97;;;17.00;99.90;;;;;;5109212;27;20223;-41
2022/07/28 08:12:38;;;;;;;4.90;0.73;;;17.10;99.90;;;;;;5108492;27;20199;-42
2022/07/28 08:15:08;;;;;;;1.77;0.90;;;17.20;99.90;;;;;;5103154;27;20212;-40
2022/07/28 08:17:35;;;;;;;3.70;1.20;;;17.20;99.90;;;;;;5109522;27;20243;-41
2022/07/28 08:20:03;;;;;;;1.67;0.60;;;17.20;99.90;;;;;;5098719;27;20216;-41
2022/07/28 08:22:30;;;;;;;5.00;0.97;;;17.20;99.90;;;;;;5111638;27;20204;-43
2022/07/28 08:24:59;;;;;;;3.43;1.00;;;17.20;99.90;;;;;;5103585;27;20554;-45
2022/07/28 08:27:26;;;;;;;1.50;0.77;;;17.20;99.90;;;;;;5114501;27;20313;-43
2022/07/28 08:29:53;;;;;;;2.57;0.80;;;17.30;99.90;;;;;;5115310;27;20288;-44
2022/07/28 08:32:21;;;;;;;1.30;0.60;;;17.40;99.90;;;;;;5104916;27;20205;-44
2022/07/28 08:34:49;;;;;;;3.07;0.87;;;17.40;99.90;;;;;;5094880;27;20905;-40
2022/07/28 08:37:16;;;;;;;4.33;0.80;;;17.40;99.90;;;;;;5108207;27;20753;-43
2022/07/28 08:39:43;;;;;;;3.03;0.60;;;17.40;99.90;;;;;;5110108;27;20197;-47
2022/07/28 08:42:15;;;;;;;2.87;1.07;;;17.40;99.90;;;;;;5106012;27;20209;-44
2022/07/28 08:44:50;;;;;;;2.23;0.70;;;17.40;99.90;;;;;;5106017;27;20285;-46
2022/07/28 08:47:19;;;;;;;5.23;0.73;;;17.40;99.90;;;;;;5111351;27;20219;-44
2022/07/28 08:49:49;;;;;;;1.80;0.80;;;17.40;99.90;;;;;;5096701;27;21880;-44
2022/07/28 08:52:18;;;;;;;1.87;0.80;;;17.50;99.90;;;;;;5116364;27;20200;-42
2022/07/28 08:54:47;;;;;;;3.93;1.03;;;17.60;99.90;;;;;;5107874;28;20243;-45
2022/07/28 08:57:18;;;;;;;2.70;0.70;;;17.60;99.90;;;;;;5117947;28;20212;-46
2022/07/28 08:59:49;;;;;;;3.53;0.90;;;17.70;99.90;;;;;;5113657;27;20188;-42
2022/07/28 09:02:17;;;;;;;3.60;0.80;;;17.70;99.90;;;;;;5109548;27;20295;-46
2022/07/28 09:04:45;;;;;;;1.53;0.70;;;17.70;99.90;;;;;;5100815;28;20419;-43
2022/07/28 09:07:13;;;;;;;2.03;0.77;;;17.60;99.90;;;;;;5100873;28;20220;-43
2022/07/28 09:09:40;;;;;;;1.30;0.40;;;17.50;99.90;;;;;;5102596;28;20528;-43
2022/07/28 09:12:08;;;;;;;1.67;0.80;;;17.60;99.90;;;;;;5114479;28;20554;-45
2022/07/28 09:14:35;;;;;;;2.00;0.50;;;17.60;99.90;;;;;;5097444;27;20205;-45
2022/07/28 09:17:03;;;;;;;2.37;0.50;;;17.60;99.90;;;;;;5113071;28;20274;-43
2022/07/28 09:19:30;;;;;;;1.80;0.50;;;17.60;99.90;;;;;;5103543;28;20196;-50
2022/07/28 09:21:57;;;;;;;3.40;0.60;;;17.50;99.80;;;;;;5099998;28;20212;-48
2022/07/28 09:24:38;;;;;;;1.43;0.77;;;17.60;99.90;;;;;;5101643;28;20188;-43
2022/07/28 09:27:06;;;;;;;1.60;0.80;;;17.70;99.80;;;;;;5109201;28;20232;-44
2022/07/28 09:29:34;;;;;;;2.10;0.53;;;17.70;99.90;;;;;;5105717;28;20185;-48
2022/07/28 09:32:01;;;;;;;0.93;0.90;;;17.60;99.20;;;;;;5109643;28;20201;-40
2022/07/28 09:34:29;;;;;;;1.30;0.40;;;17.60;99.00;;;;;;5113616;27;20210;-40
2022/07/28 09:36:56;;;;;;;0.47;0.47;;;17.70;98.50;;;;;;5117581;27;20286;-43
2022/07/28 09:39:31;;;;;;;1.27;0.60;;;17.80;98.50;;;;;;5095671;27;20677;-40
2022/07/28 09:42:00;;;;;;;2.47;0.80;;;17.90;98.40;;;;;;5114062;27;20301;-40
2022/07/28 09:44:28;;;;;;;2.17;0.70;;;17.80;98.40;;;;;;5111564;27;20190;-42
2022/07/28 09:46:56;;;;;;;2.77;0.60;;;17.80;98.50;;;;;;5111704;27;20760;-43
2022/07/28 09:49:40;;;;;;;3.80;0.77;;;17.90;99.00;;;;;;5108271;27;20220;-43
2022/07/28 09:52:07;;;;;;;2.23;0.53;;;17.90;97.80;;;;;;5112864;27;20252;-43
2022/07/28 09:54:34;;;;;;;3.30;0.70;;;17.90;98.40;;;;;;5097063;27;20263;-47
2022/07/28 09:57:03;;;;;;;1.00;0.50;;;17.80;98.50;;;;;;5107453;27;20217;-45
2022/07/28 09:59:41;;;;;;;1.43;0.43;;;17.80;98.90;;;;;;5104711;27;20251;-46
2022/07/28 10:02:07;;;;;;;0.97;0.53;;;17.90;98.90;;;;;;5114994;27;20196;-43
2022/07/28 10:04:36;;;;;;;2.17;0.83;;;17.90;98.70;;;;;;5097906;27;20201;-47
2022/07/28 10:07:05;;;;;;;0.63;0.57;;;17.90;98.60;;;;;;5119646;27;20732;-43
2022/07/28 10:09:32;;;;;;;1.83;0.60;;;17.80;98.40;;;;;;5093890;27;20209;-47
2022/07/28 10:12:18;;;;;;;1.53;0.50;;;17.80;98.50;;;;;;5114912;27;20201;-43
2022/07/28 10:14:46;;;;;;;4.23;0.60;;;17.90;98.20;;;;;;5105019;27;20884;-43
2022/07/28 10:17:23;;;;;;;1.37;0.50;;;17.90;98.30;;;;;;5117352;27;20303;-50
2022/07/28 10:19:53;;;;;;;0.93;0.50;;;18.00;98.80;;;;;;5110394;27;20208;-43
2022/07/28 10:22:21;;;;;;;1.67;0.70;;;17.90;99.20;;;;;;5112531;27;20224;-45
2022/07/28 10:24:53;;;;;;;2.57;0.60;;;18.00;99.30;;;;;;5096591;27;20204;-43
2022/07/28 10:27:23;;;;;;;5.07;1.13;;;18.00;99.40;;;;;;5115079;27;20585;-43
2022/07/28 10:29:55;;;;;;;0.80;0.60;;;18.10;99.30;;;;;;5113387;27;20280;-41
2022/07/28 10:32:22;;;;;;;2.10;0.60;;;18.20;99.70;;;;;;5111426;27;20673;-43
2022/07/28 10:34:51;;;;;;;2.23;0.60;;;18.20;98.80;;;;;;5103064;27;20232;-45
2022/07/28 10:37:22;;;;;;;2.63;0.60;;;18.30;99.30;;;;;;5108497;27;20547;-43
2022/07/28 10:39:55;;;;;;;0.80;0.50;;;18.50;99.00;;;;;;5105743;27;20976;-42
2022/07/28 10:42:24;;;;;;;5.93;0.90;;;18.50;99.00;;;;;;5098557;27;20545;-41
2022/07/28 10:44:52;;;;;;;1.20;0.83;;;18.60;99.20;;;;;;5116079;27;20289;-41
2022/07/28 10:47:19;;;;;;;1.43;0.60;;;18.60;98.90;;;;;;5108659;27;20236;-41
2022/07/28 10:49:47;;;;;;;0.57;0.47;;;18.60;98.70;;;;;;5103893;27;20986;-41
2022/07/28 10:52:16;;;;;;;2.97;0.87;;;18.70;98.50;;;;;;5117269;27;20242;-40
2022/07/28 10:54:49;;;;;;;2.33;0.70;;;18.80;98.40;;;;;;5107585;27;20262;-40
2022/07/28 10:57:17;;;;;;;3.13;0.60;;;19.00;97.80;;;;;;5093072;27;20274;-42
2022/07/28 11:00:17;;;;;;;2.87;0.83;;;19.10;97.30;;;;;;5111545;27;20199;-43
2022/07/28 11:02:50;;;;;;;3.27;0.67;;;19.00;97.00;;;;;;5021022;28;20196;-41
2022/07/28 11:05:35;;;;;;;1.40;0.77;;;19.10;96.60;;;;;;5093220;27;20279;-43
2022/07/28 11:08:05;;;;;;;1.63;0.40;;;19.10;94.70;;;;;;5111264;27;20256;-40
2022/07/28 11:10:44;;;;;;;1.37;0.60;;;19.00;96.50;;;;;;5107296;27;20188;-42
2022/07/28 11:13:24;;;;;;;1.10;0.50;;;19.10;97.00;;;;;;5098889;27;20311;-43
2022/07/28 11:15:53;;;;;;;0.87;0.50;;;19.30;95.90;;;;;;5103070;27;20216;-40
2022/07/28 11:18:20;;;;;;;3.93;0.60;;;19.40;96.00;;;;;;5107727;27;20224;-40
2022/07/28 11:21:07;;;;;;;2.03;0.80;;;19.50;94.90;;;;;;5110305;27;20205;-41
2022/07/28 11:23:53;;;;;;;0.80;0.70;;;19.40;93.70;;;;;;5110712;27;20201;-41
2022/07/28 11:26:33;;;;;;;0.83;0.50;;;19.40;94.20;;;;;;5112311;27;20185;-49
2022/07/28 11:29:17;;;;;;;2.20;0.67;;;19.50;94.60;;;;;;5102790;27;21499;-44
2022/07/28 11:31:58;;;;;;;1.80;0.93;;;19.60;93.80;;;;;;5108428;27;20197;-41
2022/07/28 11:34:25;;;;;;;2.23;0.70;;;19.70;93.80;;;;;;5114748;27;20275;-46
2022/07/28 11:37:01;;;;;;;1.53;0.57;;;19.60;93.40;;;;;;5112891;27;20213;-48
2022/07/28 11:39:29;;;;;;;1.03;0.40;;;19.70;93.20;;;;;;5115073;27;20731;-47
2022/07/28 11:41:57;;;;;;;0.80;0.67;;;19.70;92.90;;;;;;5096215;27;20707;-44
2022/07/28 11:44:25;;;;;;;1.60;0.50;;;19.70;92.80;;;;;;5111140;27;20266;-44
2022/07/28 11:46:53;;;;;;;1.37;0.57;;;19.80;92.30;;;;;;5111184;27;20295;-46
2022/07/28 11:49:26;;;;;;;1.40;0.80;;;19.70;92.00;;;;;;5115980;27;20343;-46
2022/07/28 11:52:25;;;;;;;0.90;0.53;;;19.50;92.10;;;;;;5108377;27;20198;-45
2022/07/28 11:54:56;;;;;;;1.70;0.60;;;19.40;92.50;;;;;;5101706;27;20661;-49
2022/07/28 11:57:24;;;;;;;5.20;0.80;;;19.40;92.40;;;;;;5097701;27;20232;-46
2022/07/28 11:59:57;;;;;;;1.87;0.70;;;19.40;92.80;;;;;;5112049;27;20316;-49
2022/07/28 12:02:27;;;;;;;1.23;0.50;;;19.40;92.50;;;;;;5110536;27;20284;-48
2022/07/28 12:05:04;;;;;;;4.63;0.80;;;19.40;92.70;;;;;;5112483;27;20293;-48
2022/07/28 12:07:35;;;;;;;0.90;0.60;;;19.30;92.50;;;;;;5110700;27;20219;-45
2022/07/28 12:10:21;;;;;;;1.23;0.50;;;19.30;93.00;;;;;;5105502;27;20204;-46
2022/07/28 12:12:50;;;;;;;2.63;0.53;;;19.20;92.10;;;;;;5099527;28;20204;-50
2022/07/28 12:15:17;;;;;;;2.53;0.60;;;19.20;92.50;;;;;;5110706;27;20191;-44
2022/07/28 12:17:43;;;;;;;2.23;0.80;;;19.20;92.00;;;;;;5107755;27;20304;-45
2022/07/28 12:20:13;;;;;;;2.23;0.63;;;19.20;91.70;;;;;;5110439;27;20192;-50
2022/07/28 12:22:40;;;;;;;3.37;0.63;;;19.10;91.90;;;;;;5108293;27;20204;-45
2022/07/28 12:25:08;;;;;;;2.13;0.70;;;19.20;91.20;;;;;;5100880;27;20208;-46
2022/07/28 12:27:35;;;;;;;1.53;0.60;;;19.20;91.60;;;;;;5109577;27;20228;-48
2022/07/28 12:30:03;;;;;;;1.40;0.50;;;19.20;91.50;;;;;;5096303;27;20205;-43
2022/07/28 12:32:31;;;;;;;0.97;0.40;;;19.20;90.90;;;;;;5105875;27;20197;-46
2022/07/28 12:34:58;;;;;;;1.83;0.77;;;19.20;91.00;;;;;;5106386;28;20205;-47
2022/07/28 12:37:27;;;;;;;1.27;0.40;;;19.30;91.10;;;;;;5108889;27;20217;-45
2022/07/28 12:39:54;;;;;;;1.70;0.60;;;19.20;90.60;;;;;;5108068;27;20201;-46
2022/07/28 12:42:23;;;;;;;3.40;0.73;;;19.10;90.40;;;;;;5114821;27;20197;-45
2022/07/28 12:44:53;;;;;;;2.20;0.50;;;19.20;90.50;;;;;;5096017;27;20300;-47
2022/07/28 12:47:27;;;;;;;1.43;0.40;;;19.20;90.40;;;;;;5105375;28;20205;-47
2022/07/28 12:50:14;;;;;;;1.17;0.80;;;19.30;89.40;;;;;;5115414;27;20212;-46
2022/07/28 12:52:45;;;;;;;0.90;0.53;;;19.30;89.80;;;;;;5105135;27;20565;-47
2022/07/28 12:55:23;;;;;;;0.60;0.40;;;19.40;89.30;;;;;;5102381;27;20204;-45
2022/07/28 12:57:51;;;;;;;2.33;0.70;;;19.40;89.30;;;;;;5109943;28;20227;-48
2022/07/28 13:00:22;;;;;;;0.80;0.70;;;19.50;89.70;;;;;;5103953;28;20241;-48
2022/07/28 13:02:50;;;;;;;0.80;0.47;;;19.70;89.50;;;;;;5113112;28;20555;-47